Time;durP1;ratioP1;P1;durP2;ratioP2;P2;SDS_P1;SDS_P2;PMS_P1;PMS_P2;Temp;Humidity;BMP_temperature;BMP_pressure;BME280_temperature;BME280_humidity;BME280_pressure;Samples;Min_cycle;Max_cycle;Signal;HPM_P1;HPM_P2
2023/07/13 00:04:09;;;;;;;2.47;0.75;;;;;;;22.57;59.36;96736.06;10327290;28;20041;-32
2023/07/13 00:09:20;;;;;;;1.03;0.80;;;;;;;22.43;59.46;96743.13;10326839;28;20037;-33
2023/07/13 00:14:21;;;;;;;3.75;1.35;;;;;;;22.36;59.64;96740.63;10325980;28;20516;-32
2023/07/13 00:19:22;;;;;;;4.35;1.15;;;;;;;22.34;59.57;96748.31;10326030;28;20493;-34
2023/07/13 00:24:23;;;;;;;1.98;1.20;;;;;;;22.31;59.54;96738.16;10334023;28;20034;-32
2023/07/13 00:29:26;;;;;;;2.33;1.10;;;;;;;22.29;59.54;96739.88;10334426;28;20030;-33
2023/07/13 00:34:26;;;;;;;1.23;0.85;;;;;;;22.30;59.35;96740.75;10326678;28;20034;-33
2023/07/13 00:39:27;;;;;;;2.27;1.10;;;;;;;22.28;59.21;96732.25;10332641;28;20038;-33
2023/07/13 00:44:27;;;;;;;1.90;0.88;;;;;;;22.53;58.86;96733.59;10332172;28;20030;-32
2023/07/13 00:49:33;;;;;;;0.90;0.80;;;;;;;22.63;58.54;96735.97;10333789;28;20374;-33
2023/07/13 00:54:39;;;;;;;1.87;0.97;;;;;;;22.49;59.06;96740.44;10339879;28;20277;-33
2023/07/13 00:59:42;;;;;;;1.15;0.90;;;;;;;22.40;59.12;96732.09;10333363;28;20293;-32
2023/07/13 01:04:43;;;;;;;2.40;1.02;;;;;;;22.34;59.16;96748.31;10333356;28;20121;-32
2023/07/13 01:09:44;;;;;;;1.60;0.93;;;;;;;22.33;59.14;96741.50;10326474;28;20030;-33
2023/07/13 01:14:46;;;;;;;2.00;0.90;;;;;;;22.30;59.04;96733.09;10332469;28;20061;-33
2023/07/13 01:19:46;;;;;;;2.33;1.27;;;;;;;22.25;59.33;96724.66;10330726;28;20483;-33
2023/07/13 01:24:48;;;;;;;1.93;0.83;;;;;;;22.27;59.21;96721.22;10332733;28;20038;-33
2023/07/13 01:29:51;;;;;;;1.33;0.70;;;;;;;22.39;58.10;96728.69;10324603;28;20636;-33
2023/07/13 01:34:56;;;;;;;3.15;0.80;;;;;;;22.57;57.25;96718.22;10331073;28;20579;-32
2023/07/13 01:39:56;;;;;;;0.82;0.60;;;;;;;22.53;58.13;96708.94;10346102;28;20045;-33
2023/07/13 01:44:56;;;;;;;3.67;1.10;;;;;;;22.41;58.49;96716.75;10330464;28;20038;-34
2023/07/13 01:49:57;;;;;;;1.97;1.20;;;;;;;22.35;58.82;96719.41;10325456;28;20043;-32
2023/07/13 01:54:59;;;;;;;4.05;1.50;;;;;;;22.30;58.80;96710.97;10331588;28;20096;-32
2023/07/13 02:00:03;;;;;;;1.00;0.80;;;;;;;22.27;59.01;96711.00;10330470;28;20088;-34
2023/07/13 02:05:16;;;;;;;1.65;1.10;;;;;;;22.26;58.90;96711.03;10331259;28;20554;-32
2023/07/13 02:10:17;;;;;;;2.92;1.13;;;;;;;22.28;59.02;96720.34;10323181;28;20065;-32
2023/07/13 02:15:17;;;;;;;2.60;1.30;;;;;;;22.32;59.18;96719.41;10329439;28;20041;-32
2023/07/13 02:20:18;;;;;;;1.92;0.80;;;;;;;22.55;57.83;96708.91;10326783;28;20125;-33
2023/07/13 02:25:18;;;;;;;1.60;0.90;;;;;;;22.56;57.42;96705.50;10326107;28;20065;-33
2023/07/13 02:30:19;;;;;;;3.37;0.80;;;;;;;22.46;57.54;96697.13;10325619;28;20413;-33
2023/07/13 02:35:19;;;;;;;1.55;1.10;;;;;;;22.35;58.32;96704.09;10325950;28;20543;-32
2023/07/13 02:40:20;;;;;;;2.50;0.90;;;;;;;22.31;58.46;96710.09;10329761;28;20030;-32
2023/07/13 02:45:20;;;;;;;2.28;1.33;;;;;;;22.29;58.48;96714.38;10322263;28;20080;-33
2023/07/13 02:50:20;;;;;;;2.30;0.60;;;;;;;22.25;58.32;96699.16;10327900;28;20084;-33
2023/07/13 02:55:21;;;;;;;1.77;0.88;;;;;;;22.28;58.33;96706.75;10323989;28;20030;-32
2023/07/13 03:00:22;;;;;;;1.52;0.90;;;;;;;22.25;58.22;96702.56;10326818;28;20037;-32
2023/07/13 03:05:23;;;;;;;2.17;0.90;;;;;;;22.44;55.63;96705.69;10327360;28;20026;-33
2023/07/13 03:10:26;;;;;;;2.00;0.90;;;;;;;22.50;54.54;96697.94;10325334;28;20105;-33
2023/07/13 03:15:28;;;;;;;4.43;1.00;;;;;;;22.42;54.92;96700.63;10327077;28;20037;-33
2023/07/13 03:20:33;;;;;;;4.25;0.88;;;;;;;22.34;56.41;96709.22;10325837;28;20034;-33
2023/07/13 03:25:34;;;;;;;1.92;1.05;;;;;;;22.33;56.70;96721.09;10327997;28;20408;-33
2023/07/13 03:30:37;;;;;;;3.72;1.05;;;;;;;22.28;57.02;96716.94;10324198;28;20369;-32
2023/07/13 03:35:42;;;;;;;2.42;1.00;;;;;;;22.29;57.13;96729.69;10326435;28;20030;-34
2023/07/13 03:40:43;;;;;;;3.50;0.60;;;;;;;22.29;56.38;96724.59;10325045;28;20493;-32
2023/07/13 03:45:43;;;;;;;2.10;1.17;;;;;;;22.47;57.60;96720.94;10325618;28;20097;-33
2023/07/13 03:50:44;;;;;;;2.90;1.10;;;;;;;22.34;53.73;96729.63;10324723;28;20289;-33
2023/07/13 03:55:44;;;;;;;2.53;1.27;;;;;;;22.22;53.19;96728.09;10325884;28;20069;-33
2023/07/13 04:00:44;;;;;;;3.63;1.10;;;;;;;22.09;53.44;96735.94;10320217;28;20336;-31
2023/07/13 04:05:45;;;;;;;3.60;1.20;;;;;;;22.05;53.38;96744.50;10326939;28;20082;-32
2023/07/13 04:10:46;;;;;;;2.25;1.25;;;;;;;21.97;53.75;96747.13;10325421;28;20034;-32
2023/07/13 04:15:47;;;;;;;5.73;1.33;;;;;;;21.93;53.97;96745.50;10324701;28;20042;-32
2023/07/13 04:20:49;;;;;;;3.37;1.17;;;;;;;21.91;54.58;96752.31;10324007;28;20042;-32
2023/07/13 04:25:52;;;;;;;2.42;1.20;;;;;;;21.87;54.91;96747.28;10317962;28;20046;-32
2023/07/13 04:30:54;;;;;;;3.42;0.82;;;;;;;21.87;54.75;96754.91;10325162;28;20050;-33
2023/07/13 04:35:57;;;;;;;4.60;1.30;;;;;;;21.84;54.43;96763.47;10325864;28;20030;-32
2023/07/13 04:41:00;;;;;;;3.67;1.17;;;;;;;21.83;54.65;96764.34;10326367;28;20038;-32
2023/07/13 04:46:10;;;;;;;1.38;0.75;;;;;;;21.87;54.66;96780.41;10325784;28;20122;-33
2023/07/13 04:51:11;;;;;;;5.55;1.27;;;;;;;21.85;54.72;96772.81;10325853;28;20061;-32
2023/07/13 04:56:11;;;;;;;8.60;2.25;;;;;;;21.86;55.01;96779.59;10325677;28;20058;-33
2023/07/13 05:01:13;;;;;;;5.95;1.02;;;;;;;21.84;55.27;96780.47;10325448;28;20045;-32
2023/07/13 05:06:13;;;;;;;5.68;1.30;;;;;;;21.87;55.51;96791.47;10324347;28;20258;-31
2023/07/13 05:11:14;;;;;;;3.63;1.15;;;;;;;21.99;55.41;96798.94;10332269;28;20035;-33
2023/07/13 05:16:14;;;;;;;4.93;1.40;;;;;;;21.98;55.46;96801.53;10332622;28;20096;-33
2023/07/13 05:21:14;;;;;;;1.80;1.17;;;;;;;21.95;56.18;96804.09;10327798;28;20073;-32
2023/07/13 05:26:15;;;;;;;3.63;0.90;;;;;;;21.94;56.81;96807.50;10332432;28;20049;-32
2023/07/13 05:31:15;;;;;;;2.15;1.20;;;;;;;21.82;55.95;96818.69;10332057;28;20500;-32
2023/07/13 05:36:16;;;;;;;2.93;1.13;;;;;;;21.96;56.00;96827.03;10332233;28;20501;-33
2023/07/13 05:41:16;;;;;;;3.43;1.17;;;;;;;21.97;56.33;96828.72;10330653;28;20516;-33
2023/07/13 05:46:16;;;;;;;7.43;1.67;;;;;;;22.04;56.28;96830.34;10331750;28;20052;-32
2023/07/13 05:51:17;;;;;;;1.67;1.10;;;;;;;21.97;56.43;96833.81;10330969;28;20050;-32
2023/07/13 05:56:17;;;;;;;6.57;1.60;;;;;;;21.93;56.76;96832.19;10331108;28;20108;-32
2023/07/13 06:01:20;;;;;;;4.50;1.87;;;;;;;21.94;57.02;96833.00;10331337;28;20038;-33
2023/07/13 06:06:20;;;;;;;2.60;1.33;;;;;;;21.88;56.55;96836.47;10330583;28;20293;-32
2023/07/13 06:11:23;;;;;;;5.63;2.23;;;;;;;21.89;57.14;96839.88;10331046;28;20034;-32
2023/07/13 06:16:24;;;;;;;7.45;1.52;;;;;;;21.92;57.33;96835.59;10329941;28;20030;-32
2023/07/13 06:21:24;;;;;;;5.22;2.00;;;;;;;21.88;57.28;96846.69;10329727;28;20117;-33
2023/07/13 06:26:25;;;;;;;4.10;1.90;;;;;;;21.90;56.47;96850.03;10329937;28;20393;-32
2023/07/13 06:31:25;;;;;;;4.03;1.43;;;;;;;21.91;56.18;96844.06;10330218;28;20374;-32
2023/07/13 06:36:26;;;;;;;5.30;1.70;;;;;;;21.91;56.09;96849.19;10329454;28;20293;-32
2023/07/13 06:41:26;;;;;;;9.15;1.52;;;;;;;21.92;56.20;96852.59;10328630;28;20085;-33
2023/07/13 06:46:28;;;;;;;4.37;1.63;;;;;;;21.92;55.60;96845.78;10329340;28;20038;-32
2023/07/13 06:51:29;;;;;;;3.00;1.63;;;;;;;21.97;55.75;96844.03;10328331;28;20371;-33
2023/07/13 06:56:29;;;;;;;4.67;1.40;;;;;;;21.92;55.01;96850.91;10329286;28;20712;-32
2023/07/13 07:01:29;;;;;;;4.43;1.50;;;;;;;22.00;55.04;96849.09;10327388;28;20042;-32
2023/07/13 07:06:30;;;;;;;2.27;1.40;;;;;;;22.01;54.77;96845.69;10328772;28;20262;-32
2023/07/13 07:11:30;;;;;;;4.37;1.43;;;;;;;22.03;54.50;96855.84;10320090;28;20030;-32
2023/07/13 07:16:30;;;;;;;6.20;1.87;;;;;;;22.11;53.99;96857.47;10328191;28;20293;-33
2023/07/13 07:21:31;;;;;;;4.43;1.50;;;;;;;22.10;53.49;96865.97;10327785;28;20031;-33
2023/07/13 07:26:31;;;;;;;5.50;1.37;;;;;;;22.12;50.99;96869.34;10327695;28;20511;-31
2023/07/13 07:31:32;;;;;;;4.95;1.23;;;;;;;22.09;50.61;96869.38;10327309;28;20281;-33
2023/07/13 07:36:32;;;;;;;5.07;1.30;;;;;;;22.12;49.88;96873.59;10327575;28;20282;-32
2023/07/13 07:41:32;;;;;;;5.63;1.47;;;;;;;21.98;53.38;96866.09;10327465;28;20034;-32
2023/07/13 07:46:33;;;;;;;4.60;1.20;;;;;;;22.17;51.02;96866.72;10326970;28;20165;-32
2023/07/13 07:51:33;;;;;;;7.33;1.33;;;;;;;22.14;50.93;96861.69;10327385;28;20481;-32
2023/07/13 07:56:33;;;;;;;2.87;1.30;;;;;;;22.14;51.88;96871.88;10324445;28;20035;-32
2023/07/13 08:01:34;;;;;;;4.17;1.40;;;;;;;22.15;50.88;96873.56;10326770;28;20525;-32
2023/07/13 08:06:34;;;;;;;5.17;1.73;;;;;;;22.12;52.29;96866.78;10327218;28;20034;-32
2023/07/13 08:11:34;;;;;;;12.63;2.30;;;;;;;22.06;54.44;96871.97;10326551;28;20045;-32
2023/07/13 08:16:35;;;;;;;7.93;2.43;;;;;;;22.02;54.27;96866.91;10327121;28;20030;-32
2023/07/13 08:21:36;;;;;;;10.47;3.40;;;;;;;22.05;55.55;96875.38;10318947;28;20037;-33
2023/07/13 08:26:37;;;;;;;6.28;2.30;;;;;;;22.01;56.78;96881.38;10326504;28;20027;-32
2023/07/13 08:31:39;;;;;;;7.00;1.60;;;;;;;22.01;55.50;96871.19;10326359;28;20030;-33
2023/07/13 08:36:40;;;;;;;7.63;2.15;;;;;;;22.17;52.95;96877.78;10325954;28;20042;-32
2023/07/13 08:41:40;;;;;;;8.63;2.03;;;;;;;22.23;52.61;96877.69;10327452;28;20034;-32
2023/07/13 08:46:42;;;;;;;16.20;2.55;;;;;;;22.16;54.48;96873.53;10333707;28;20319;-33
2023/07/13 08:52:01;;;;;;;6.68;2.60;;;;;;;22.05;56.31;96883.03;10333965;28;20445;-33
2023/07/13 08:57:12;;;;;;;7.80;2.50;;;;;;;22.01;56.35;96878.84;10333447;28;20042;-32
2023/07/13 09:02:18;;;;;;;15.60;2.97;;;;;;;22.02;56.43;96877.97;10332609;28;20456;-33
2023/07/13 09:07:29;;;;;;;;;;;;;;;22.03;56.60;96879.66;10333753;28;20038;-33
2023/07/13 09:12:48;;;;;;;10.73;2.42;;;;;;;22.02;56.73;96888.16;10332688;28;21390;-32
2023/07/13 09:17:51;;;;;;;7.95;2.20;;;;;;;22.01;56.74;96873.72;10332054;28;20034;-33
2023/07/13 09:22:52;;;;;;;7.00;1.83;;;;;;;22.21;54.24;96884.53;10332452;28;20587;-33
2023/07/13 09:27:56;;;;;;;10.73;2.13;;;;;;;22.29;54.35;96886.97;10331523;28;20037;-32
2023/07/13 09:32:58;;;;;;;6.07;1.90;;;;;;;22.20;56.05;96882.00;10332493;28;20029;-32
2023/07/13 09:38:13;;;;;;;4.63;2.00;;;;;;;22.14;56.42;96888.00;10331877;28;20042;-32
2023/07/13 09:43:16;;;;;;;4.00;1.98;;;;;;;22.09;56.87;96883.84;10332442;28;20042;-31
2023/07/13 09:48:18;;;;;;;4.13;1.98;;;;;;;22.13;56.78;96876.13;10331667;28;20045;-33
2023/07/13 09:53:19;;;;;;;3.70;2.00;;;;;;;22.09;56.84;96874.50;10329897;28;20034;-33
2023/07/13 09:58:25;;;;;;;9.60;2.78;;;;;;;22.10;57.05;96883.81;10331559;28;20093;-32
2023/07/13 10:03:36;;;;;;;8.75;3.38;;;;;;;22.09;57.04;96871.94;10330583;28;20042;-32
2023/07/13 10:08:36;;;;;;;8.70;2.33;;;;;;;22.23;56.26;96879.41;10328551;28;20168;-33
2023/07/13 10:13:42;;;;;;;6.45;2.80;;;;;;;22.36;56.10;96881.78;10325867;28;20447;-34
2023/07/13 10:18:47;;;;;;;10.47;4.00;;;;;;;22.29;57.53;96882.72;10330630;28;20088;-32
2023/07/13 10:23:54;;;;;;;8.77;4.28;;;;;;;22.18;59.02;96892.22;10327611;28;20038;-32
2023/07/13 10:28:59;;;;;;;6.60;2.95;;;;;;;22.14;59.05;96882.91;10329715;28;20049;-33
2023/07/13 10:33:59;;;;;;;6.53;3.65;;;;;;;22.12;59.07;96886.34;10330191;28;20034;-33
2023/07/13 10:39:04;;;;;;;6.13;3.20;;;;;;;22.10;58.95;96878.72;10329247;28;20043;-32
2023/07/13 10:44:09;;;;;;;5.32;3.15;;;;;;;22.09;59.26;96888.94;10328419;28;20061;-32
2023/07/13 10:49:11;;;;;;;6.90;3.13;;;;;;;22.08;59.12;96888.06;10327124;28;20041;-33
2023/07/13 10:54:27;;;;;;;8.27;2.28;;;;;;;22.17;58.10;96893.09;10328034;28;20040;-33
2023/07/13 10:59:29;;;;;;;7.30;2.57;;;;;;;22.35;57.41;96886.91;10320917;28;20041;-33
2023/07/13 11:04:40;;;;;;;5.88;2.60;;;;;;;22.35;57.63;96885.22;10327653;28;20045;-33
2023/07/13 11:09:44;;;;;;;5.63;2.88;;;;;;;22.23;58.18;96887.91;10328286;28;20034;-32
2023/07/13 11:15:06;;;;;;;5.03;2.50;;;;;;;22.12;58.67;96871.88;10327686;28;20037;-32
2023/07/13 11:20:12;;;;;;;5.75;2.20;;;;;;;22.11;58.75;96890.59;10327692;28;20038;-32
2023/07/13 11:25:29;;;;;;;5.53;2.28;;;;;;;22.10;58.87;96871.06;10325431;28;20125;-32
2023/07/13 11:30:29;;;;;;;3.53;2.40;;;;;;;22.09;58.82;96877.03;10326658;28;20042;-33
2023/07/13 11:35:32;;;;;;;5.75;1.95;;;;;;;22.06;58.93;96869.41;10323062;28;20041;-33
2023/07/13 11:40:32;;;;;;;4.43;2.20;;;;;;;22.18;58.63;96860.78;10321940;28;20100;-33
2023/07/13 11:45:33;;;;;;;1.73;1.60;;;;;;;22.36;57.98;96869.03;10323582;28;20558;-32
2023/07/13 11:50:34;;;;;;;4.25;1.90;;;;;;;22.37;57.84;96855.41;10326829;28;20297;-32
2023/07/13 11:55:40;;;;;;;3.35;1.95;;;;;;;22.27;58.09;96866.59;10326467;28;20121;-33
2023/07/13 12:00:41;;;;;;;;;;;;;;;22.18;58.64;96864.19;10326969;28;20104;-33
2023/07/13 12:06:00;;;;;;;2.47;1.70;;;;;;;22.12;58.78;96854.03;10320281;28;19913;-33
2023/07/13 12:11:09;;;;;;;2.47;1.73;;;;;;;22.10;58.81;96858.31;10322825;28;20038;-33
2023/07/13 12:16:16;;;;;;;2.42;1.60;;;;;;;22.11;58.80;96867.66;10331123;28;20101;-33
2023/07/13 12:21:21;;;;;;;4.70;1.83;;;;;;;22.12;58.97;96863.38;10334342;28;20038;-33
2023/07/13 12:26:22;;;;;;;3.90;1.63;;;;;;;22.17;58.80;96862.50;10330370;28;20117;-33
2023/07/13 12:31:26;;;;;;;8.57;2.58;;;;;;;22.36;58.46;96858.84;10331815;28;20124;-33
2023/07/13 12:36:31;;;;;;;4.93;1.83;;;;;;;22.42;58.07;96858.81;10334131;28;20493;-33
2023/07/13 12:41:33;;;;;;;3.85;1.85;;;;;;;22.33;58.11;96852.94;10333295;28;20038;-33
2023/07/13 12:46:33;;;;;;;7.80;2.40;;;;;;;22.22;58.39;96855.59;10331424;28;20064;-33
2023/07/13 12:51:34;;;;;;;9.87;2.23;;;;;;;22.18;58.36;96853.13;10331395;28;20030;-32
2023/07/13 12:56:34;;;;;;;7.05;2.17;;;;;;;22.13;58.51;96858.28;10333187;28;20035;-33
2023/07/13 13:01:37;;;;;;;5.80;1.88;;;;;;;22.17;58.81;96854.84;10334961;28;20030;-32
2023/07/13 13:06:37;;;;;;;9.43;2.22;;;;;;;22.14;58.79;96854.84;10332983;28;20042;-34
2023/07/13 13:11:37;;;;;;;4.10;1.73;;;;;;;22.12;58.92;96838.75;10332234;28;20026;-33
2023/07/13 13:16:48;;;;;;;4.17;1.93;;;;;;;22.34;58.82;96840.16;10332358;28;20523;-33
2023/07/13 13:21:52;;;;;;;6.28;2.20;;;;;;;22.46;58.49;96845.13;10332338;28;20149;-33
2023/07/13 13:26:53;;;;;;;10.60;2.25;;;;;;;22.39;58.43;96842.66;10324191;28;20057;-32
2023/07/13 13:31:57;;;;;;;5.85;1.77;;;;;;;22.28;58.82;96844.47;10321941;28;20106;-32
2023/07/13 13:36:57;;;;;;;7.00;2.40;;;;;;;22.21;59.46;96851.38;10333210;28;20301;-33
2023/07/13 13:41:58;;;;;;;5.17;2.30;;;;;;;22.19;59.34;96847.16;10326382;28;20121;-33
2023/07/13 13:46:58;;;;;;;5.20;2.00;;;;;;;22.16;59.57;96842.09;10330953;28;20042;-33
2023/07/13 13:51:59;;;;;;;6.00;2.53;;;;;;;22.15;59.32;96848.88;10337196;28;20296;-33
2023/07/13 13:56:59;;;;;;;5.57;1.92;;;;;;;22.14;59.43;96847.22;10330649;28;20034;-33
2023/07/13 14:02:00;;;;;;;5.53;2.20;;;;;;;22.24;59.72;96853.88;10328671;28;20039;-33
2023/07/13 14:07:01;;;;;;;5.20;1.83;;;;;;;22.44;59.46;96849.41;10326625;28;20049;-33
2023/07/13 14:12:01;;;;;;;4.93;1.90;;;;;;;22.43;58.71;96845.19;10330433;28;20455;-32
2023/07/13 14:17:01;;;;;;;3.13;1.88;;;;;;;22.32;59.11;96851.25;10329324;28;20528;-33
2023/07/13 14:22:02;;;;;;;7.53;1.95;;;;;;;22.23;59.38;96847.09;10329262;28;20113;-31
2023/07/13 14:27:03;;;;;;;3.47;1.55;;;;;;;22.21;59.36;96856.47;10329434;28;20089;-33
2023/07/13 14:32:05;;;;;;;5.07;1.73;;;;;;;22.18;59.45;96856.53;10328765;28;20461;-33
2023/07/13 14:37:12;;;;;;;7.15;2.60;;;;;;;22.17;59.43;96857.38;10328921;28;20085;-34
2023/07/13 14:42:12;;;;;;;7.95;1.67;;;;;;;22.16;59.37;96860.78;10327709;28;20413;-33
2023/07/13 14:47:12;;;;;;;5.57;1.70;;;;;;;22.17;60.36;96865.03;10328941;28;20045;-32
2023/07/13 14:52:17;;;;;;;2.40;1.60;;;;;;;22.39;59.86;96869.00;10328264;28;20808;-33
2023/07/13 14:57:19;;;;;;;3.70;1.52;;;;;;;22.47;59.42;96862.13;10328380;28;20648;-32
2023/07/13 15:02:32;;;;;;;5.70;1.50;;;;;;;22.35;59.32;96859.69;10327748;28;20169;-32
2023/07/13 15:07:33;;;;;;;7.00;1.52;;;;;;;22.25;59.40;96860.69;10327810;28;20065;-34
2023/07/13 15:12:33;;;;;;;2.22;1.40;;;;;;;22.21;59.55;96866.69;10325110;28;20026;-32
2023/07/13 15:17:39;;;;;;;3.40;1.90;;;;;;;22.15;59.59;96860.81;10327900;28;20045;-32
2023/07/13 15:22:39;;;;;;;5.27;2.07;;;;;;;22.15;59.62;96863.38;10327568;28;20030;-33
2023/07/13 15:27:40;;;;;;;3.83;1.47;;;;;;;22.14;59.70;96854.84;10328400;28;20034;-33
2023/07/13 15:32:44;;;;;;;2.57;1.70;;;;;;;22.13;59.56;96854.91;10327536;28;20034;-33
2023/07/13 15:37:46;;;;;;;2.38;1.58;;;;;;;22.35;59.96;96861.41;10327085;28;20036;-33
2023/07/13 15:42:47;;;;;;;4.03;1.80;;;;;;;22.49;59.58;96854.44;10327286;28;20062;-32
2023/07/13 15:47:49;;;;;;;4.35;1.42;;;;;;;22.39;59.40;96870.72;10325378;28;20073;-33
2023/07/13 15:52:55;;;;;;;2.17;1.05;;;;;;;22.28;59.55;96857.22;10321848;28;20408;-33
2023/07/13 15:57:55;;;;;;;5.05;1.23;;;;;;;22.21;59.53;96859.03;10311898;28;20213;-32
2023/07/13 16:02:56;;;;;;;4.40;1.30;;;;;;;22.18;59.37;96859.06;10322634;28;20185;-33
2023/07/13 16:07:57;;;;;;;3.93;1.50;;;;;;;22.15;59.70;96856.53;10318503;28;20354;-32
2023/07/13 16:12:58;;;;;;;3.88;1.30;;;;;;;22.17;59.51;96867.59;10322985;28;20034;-32
2023/07/13 16:17:58;;;;;;;6.82;1.40;;;;;;;22.17;59.33;96865.03;10326343;28;20142;-34
2023/07/13 16:23:02;;;;;;;3.53;1.60;;;;;;;22.31;60.47;96863.16;10325336;28;20186;-33
2023/07/13 16:28:04;;;;;;;3.65;1.20;;;;;;;22.49;60.29;96860.38;10326107;28;20121;-32
2023/07/13 16:33:07;;;;;;;3.00;1.50;;;;;;;22.45;59.59;96861.31;10325090;28;20046;-33
2023/07/13 16:38:17;;;;;;;2.45;1.25;;;;;;;22.33;59.55;96858.84;10325644;28;20088;-33
2023/07/13 16:43:20;;;;;;;5.07;1.35;;;;;;;22.29;60.33;96862.31;10326198;28;20129;-32
2023/07/13 16:48:26;;;;;;;5.88;1.35;;;;;;;22.29;59.69;96869.97;10325295;28;20496;-33
2023/07/13 16:53:29;;;;;;;3.47;1.17;;;;;;;22.29;59.52;96874.22;10326035;28;20401;-33
2023/07/13 16:58:32;;;;;;;2.92;1.40;;;;;;;22.25;59.36;96878.53;10324672;28;20046;-32
2023/07/13 17:03:32;;;;;;;3.17;1.15;;;;;;;22.27;59.39;96869.16;10328148;28;20461;-33
2023/07/13 17:08:33;;;;;;;2.95;1.02;;;;;;;22.32;60.11;96869.09;10333335;28;20038;-33
2023/07/13 17:13:33;;;;;;;2.60;1.13;;;;;;;22.50;59.66;96867.16;10332556;28;20479;-34
2023/07/13 17:18:36;;;;;;;2.97;0.80;;;;;;;22.50;59.13;96862.06;10333221;28;20289;-33
2023/07/13 17:23:37;;;;;;;2.22;1.15;;;;;;;22.36;59.02;96860.53;10332188;28;20394;-33
2023/07/13 17:28:38;;;;;;;2.35;1.30;;;;;;;22.34;59.27;96865.69;10332635;28;20070;-32
2023/07/13 17:33:40;;;;;;;2.13;0.82;;;;;;;22.30;59.29;96864.00;10331102;28;20038;-33
2023/07/13 17:38:44;;;;;;;1.70;0.93;;;;;;;22.28;59.32;96865.75;10332338;28;20045;-33
2023/07/13 17:43:47;;;;;;;1.80;1.02;;;;;;;22.29;59.37;96872.53;10331089;28;20531;-32
2023/07/13 17:48:49;;;;;;;1.58;0.90;;;;;;;22.27;59.49;96869.16;10332004;28;20109;-33
2023/07/13 17:53:50;;;;;;;2.80;1.13;;;;;;;22.29;59.41;96867.44;10331186;28;20053;-32
2023/07/13 17:58:51;;;;;;;2.05;1.00;;;;;;;22.50;59.77;96871.44;10325815;28;20041;-33
2023/07/13 18:03:53;;;;;;;2.15;1.00;;;;;;;22.57;59.28;96867.94;10325556;28;20084;-33
2023/07/13 18:08:56;;;;;;;1.73;0.93;;;;;;;22.42;58.97;96874.09;10326228;28;20339;-33
2023/07/13 18:13:56;;;;;;;1.63;1.00;;;;;;;22.36;59.12;96875.84;10323370;28;20035;-33
2023/07/13 18:18:58;;;;;;;3.63;0.90;;;;;;;22.33;58.90;96876.72;10326302;28;20440;-32
2023/07/13 18:24:04;;;;;;;4.82;1.20;;;;;;;22.30;58.85;96879.31;10325345;28;20687;-34
2023/07/13 18:29:05;;;;;;;2.67;0.93;;;;;;;22.29;58.86;96879.31;10321988;28;20537;-32
2023/07/13 18:34:06;;;;;;;4.65;1.00;;;;;;;22.26;59.09;96879.38;10326217;28;20121;-33
2023/07/13 18:39:13;;;;;;;1.85;0.80;;;;;;;22.25;59.10;96882.78;10325106;28;20026;-32
2023/07/13 18:44:13;;;;;;;2.88;0.88;;;;;;;22.42;58.66;96888.56;10324777;28;20046;-32
2023/07/13 18:49:14;;;;;;;2.30;0.90;;;;;;;22.55;58.13;96882.44;10323700;28;20051;-32
2023/07/13 18:54:14;;;;;;;1.67;1.00;;;;;;;22.44;58.24;96885.13;10323672;28;20289;-32
2023/07/13 18:59:15;;;;;;;1.90;1.07;;;;;;;22.34;58.51;96896.28;10326928;28;20042;-33
2023/07/13 19:04:26;;;;;;;1.48;0.68;;;;;;;22.29;58.75;96892.94;10328814;28;20309;-32
2023/07/13 19:09:27;;;;;;;1.40;0.90;;;;;;;22.26;58.75;96895.53;10320391;28;20034;-31
2023/07/13 19:14:30;;;;;;;2.35;1.10;;;;;;;22.26;58.71;96905.75;10325792;28;20045;-33
2023/07/13 19:19:30;;;;;;;2.83;1.13;;;;;;;22.25;58.81;96901.50;10326659;28;20038;-33
2023/07/13 19:24:32;;;;;;;3.67;1.00;;;;;;;22.22;58.62;96898.97;10327695;28;20456;-33
2023/07/13 19:29:36;;;;;;;3.05;1.23;;;;;;;22.34;57.93;96901.38;10326801;28;20041;-33
2023/07/13 19:34:36;;;;;;;2.50;1.50;;;;;;;22.52;57.25;96921.59;10326485;28;20030;-33
2023/07/13 19:39:39;;;;;;;4.80;0.98;;;;;;;22.48;57.52;96924.22;10326968;28;20049;-33
2023/07/13 19:44:41;;;;;;;3.97;1.00;;;;;;;22.34;58.20;96934.56;10324871;28;20042;-34
2023/07/13 19:49:44;;;;;;;1.73;1.00;;;;;;;22.29;58.37;96948.19;10327235;28;20409;-32
2023/07/13 19:54:46;;;;;;;4.43;1.88;;;;;;;22.26;58.28;96943.13;10325797;28;20038;-33
2023/07/13 19:59:51;;;;;;;2.03;1.15;;;;;;;22.25;58.41;96947.41;10326196;28;20027;-32
2023/07/13 20:04:52;;;;;;;2.78;1.10;;;;;;;22.23;58.41;96954.22;10324819;28;20034;-33
2023/07/13 20:09:53;;;;;;;3.00;0.80;;;;;;;22.23;58.29;96951.66;10320405;28;20026;-33
2023/07/13 20:14:54;;;;;;;5.05;1.48;;;;;;;22.22;58.00;96951.72;10327109;28;20360;-33
2023/07/13 20:19:54;;;;;;;4.57;1.10;;;;;;;22.46;56.97;96966.75;10323867;28;20081;-33
2023/07/13 20:24:55;;;;;;;0.68;0.63;;;;;;;22.52;56.95;96964.97;10322667;28;20579;-33
2023/07/13 20:29:57;;;;;;;3.50;1.00;;;;;;;22.39;57.47;96972.78;10326584;28;20034;-33
2023/07/13 20:34:57;;;;;;;1.70;0.90;;;;;;;22.30;58.00;96971.16;10323392;28;20027;-33
2023/07/13 20:39:59;;;;;;;2.83;1.23;;;;;;;22.26;58.07;96968.66;10331906;28;20034;-33
2023/07/13 20:45:00;;;;;;;1.55;1.00;;;;;;;22.24;58.03;96971.22;10331802;28;20042;-33
2023/07/13 20:50:03;;;;;;;0.97;0.87;;;;;;;22.22;58.13;96977.22;10334113;28;20190;-32
2023/07/13 20:55:15;;;;;;;1.95;0.80;;;;;;;22.21;58.09;96984.00;10329821;28;20034;-33
2023/07/13 21:00:22;;;;;;;3.47;1.00;;;;;;;22.20;58.03;96981.47;10333781;28;20039;-33
2023/07/13 21:05:24;;;;;;;4.30;1.13;;;;;;;22.41;55.73;96984.66;10333593;28;20400;-33
2023/07/13 21:10:28;;;;;;;2.85;1.70;;;;;;;22.53;55.14;96997.28;10333119;28;20034;-33
2023/07/13 21:15:31;;;;;;;2.55;1.30;;;;;;;22.42;56.30;96991.47;10333731;28;20041;-33
2023/07/13 21:20:34;;;;;;;1.05;0.95;;;;;;;22.32;57.18;96996.66;10332131;28;20045;-33
2023/07/13 21:25:35;;;;;;;5.15;1.00;;;;;;;22.25;57.36;96988.22;10333520;28;20031;-33
2023/07/13 21:30:42;;;;;;;1.37;1.00;;;;;;;22.22;57.58;96980.59;10331972;28;20030;-33
2023/07/13 21:35:43;;;;;;;2.28;1.17;;;;;;;22.23;57.46;96994.19;10332714;28;20509;-32
2023/07/13 21:40:46;;;;;;;2.10;1.10;;;;;;;22.22;56.79;96993.34;10331448;28;20041;-33
2023/07/13 21:45:46;;;;;;;1.25;0.77;;;;;;;22.22;57.35;96983.13;10329545;28;20433;-33
2023/07/13 21:50:55;;;;;;;2.60;1.20;;;;;;;22.36;55.17;96994.06;10329044;28;20437;-33
2023/07/13 21:55:58;;;;;;;2.95;1.10;;;;;;;22.49;53.73;96990.50;10329022;28;20030;-33
2023/07/13 22:01:00;;;;;;;3.65;1.60;;;;;;;22.45;53.69;96990.56;10331606;28;20221;-32
2023/07/13 22:06:02;;;;;;;2.28;1.20;;;;;;;22.34;56.22;96993.22;10330952;28;20044;-33
2023/07/13 22:11:11;;;;;;;3.30;1.58;;;;;;;22.25;56.75;97003.53;10331410;28;20042;-32
2023/07/13 22:16:18;;;;;;;2.53;1.42;;;;;;;22.24;56.93;96993.34;10330291;28;20034;-33
2023/07/13 22:21:19;;;;;;;4.63;1.20;;;;;;;22.21;56.86;96981.44;10330559;28;20038;-33
2023/07/13 22:26:29;;;;;;;4.22;1.05;;;;;;;22.22;56.74;96980.59;10330207;28;20117;-33
2023/07/13 22:31:29;;;;;;;4.60;1.10;;;;;;;22.20;57.00;96989.97;10325523;28;20412;-33
2023/07/13 22:36:29;;;;;;;5.43;1.43;;;;;;;22.29;54.06;96984.78;10330206;28;20041;-32
2023/07/13 22:41:30;;;;;;;3.77;1.53;;;;;;;22.42;53.30;96986.38;10329325;28;20030;-34
2023/07/13 22:46:31;;;;;;;2.35;1.05;;;;;;;22.45;53.02;96991.44;10330034;28;20711;-32
2023/07/13 22:51:32;;;;;;;2.60;1.15;;;;;;;22.37;53.27;96992.31;10329034;28;20049;-33
2023/07/13 22:56:32;;;;;;;2.07;1.30;;;;;;;22.28;55.71;96983.09;10325895;28;20038;-32
2023/07/13 23:01:35;;;;;;;2.17;1.20;;;;;;;22.25;54.58;96978.03;10328631;28;20026;-33
2023/07/13 23:06:37;;;;;;;1.23;0.82;;;;;;;22.23;56.10;96972.06;10328512;28;20076;-33
2023/07/13 23:11:37;;;;;;;1.33;1.00;;;;;;;22.21;56.13;96973.81;10328783;28;20026;-33
2023/07/13 23:16:38;;;;;;;3.47;1.87;;;;;;;22.22;54.71;96978.03;10328228;28;20089;-33
2023/07/13 23:21:39;;;;;;;4.13;1.23;;;;;;;22.20;56.09;96974.66;10327810;28;20026;-33
2023/07/13 23:26:39;;;;;;;2.63;1.57;;;;;;;22.35;52.65;96969.41;10328480;28;20032;-33